Latest Weather Observations for Port Kembla Harbour

IDN60801

Issued at 10:35 am EST Saturday 2 August 2014 (issued every 30 minutes, with the page automatically refreshed every 10 minutes)

About weather observations | Map of weather stations | Latest weather observations for NSW | Other Formats
Station Details ID: 068253 Name: PORT KEMBLA NTC AWS Lat: -34.47 Lon: 150.91 Height: 0.0 m
Data from the previous 72 hours. | See also: Recent months for locations in New South Wales
Date/Time
EST
Temp
°C
App
Temp
°C
Dew
Point
Rel
Hum
%
Delta-T
°C
Wind Press
QNH
hPa
Press
MSL
hPa
Rain
since 9 am
mm
Dir
 
Spd
km/h
Gust
km/h
Spd
kts
Gust
kts
02/10:30am 11.7 - - - - WSW 24 39 13 21 1025.2 - -
02/10:00am 11.6 - - - - WSW 30 39 16 21 1024.9 1024.9 -
02/09:30am 11.0 - - - - WSW 28 35 15 19 1024.7 - -
02/09:00am 11.0 - - - - W 24 32 13 17 1024.0 1024.0 -
02/08:30am 10.4 - - - - W 22 30 12 16 1023.2 - -
02/08:00am 10.4 - - - - WSW 30 43 16 23 1022.5 1022.5 -
02/07:30am 9.4 - - - - W 30 41 16 22 1021.7 - -
02/07:00am 8.8 - - - - W 28 37 15 20 1021.1 1021.1 -
02/06:30am 8.8 - - - - W 26 37 14 20 1020.7 - -
02/06:00am 8.8 - - - - W 24 35 13 19 1020.1 1020.1 -
02/05:30am 9.1 - - - - W 30 41 16 22 1019.6 - -
02/05:00am 9.3 - - - - W 30 37 16 20 1019.2 1019.2 -
02/04:30am 9.6 - - - - W 35 44 19 24 1018.7 - -
02/04:00am 9.9 - - - - W 32 43 17 23 1018.0 1018.0 -
02/03:30am 9.8 - - - - W 26 46 14 25 1017.4 - -
02/03:25am 9.9 - - - - W 28 46 15 25 1017.4 - -
02/03:00am 10.0 - - - - W 28 37 15 20 1016.9 1016.9 -
02/02:30am 9.8 - - - - W 30 43 16 23 1016.5 - -
02/02:00am 9.8 - - - - W 30 50 16 27 1016.5 1016.5 -
02/01:53am 9.8 - - - - W 30 50 16 27 1016.6 - -
02/01:30am 9.8 - - - - W 22 33 12 18 1016.3 - -
02/01:00am 9.9 - - - - W 22 35 12 19 1016.2 1016.2 -
02/12:30am 10.1 - - - - W 19 32 10 17 1016.0 - -
02/12:00am 10.1 - - - - W 22 35 12 19 1015.6 1015.6 -
 
Date/Time
EST
Temp
°C
App
Temp
°C
Dew
Point
Rel
Hum
%
Delta-T
°C
Wind Press
QNH
hPa
Press
MSL
hPa
Rain
since 9 am
mm
Dir
 
Spd
km/h
Gust
km/h
Spd
kts
Gust
kts
01/11:30pm 10.0 - - - - W 24 35 13 19 1015.6 - -
01/11:00pm 10.2 - - - - W 28 35 15 19 1015.3 1015.3 -
01/10:42pm 10.2 - - - - W 32 50 17 27 1015.0 - -
01/10:30pm 10.3 - - - - W 33 46 18 25 1015.0 - -
01/10:00pm 10.0 - - - - W 20 32 11 17 1014.3 1014.3 -
01/09:30pm 10.2 - - - - W 26 44 14 24 1014.1 - -
01/09:00pm 10.5 - - - - WSW 22 33 12 18 1014.3 1014.3 -
01/08:30pm 10.2 - - - - SW 17 26 9 14 1013.9 - -
01/08:09pm 10.0 - - - - WNW 30 50 16 27 1012.8 - -
01/08:00pm 10.2 - - - - W 35 52 19 28 1012.5 1012.5 -
01/07:30pm 10.0 - - - - W 32 52 17 28 1012.6 - -
01/07:03pm 10.5 - - - - W 28 50 15 27 1012.6 - -
01/07:00pm 10.6 - - - - WSW 24 41 13 22 1012.4 1012.4 -
01/06:41pm 10.5 - - - - W 32 50 17 27 1011.9 - -
01/06:30pm 11.2 - - - - WNW 43 52 23 28 1011.7 - -
01/06:00pm 11.3 - - - - WNW 41 52 22 28 1010.2 1010.2 -
01/05:30pm 12.4 - - - - WNW 41 52 22 28 1009.5 - -
01/05:00pm 13.3 - - - - W 41 52 22 28 1009.1 1009.1 -
01/04:30pm 14.0 - - - - W 33 50 18 27 1008.4 - -
01/04:00pm 14.2 - - - - WNW 37 52 20 28 1008.0 1008.0 -
01/03:30pm 14.5 - - - - WNW 33 50 18 27 1007.5 - -
01/03:00pm 14.7 - - - - W 35 52 19 28 1007.6 1007.6 -
01/02:30pm 14.9 - - - - W 32 50 17 27 1007.4 - -
01/02:00pm 14.3 - - - - W 43 52 23 28 1007.4 1007.4 -
01/01:30pm 14.3 - - - - W 37 52 20 28 1007.2 - -
01/01:11pm 14.3 - - - - W 32 50 17 27 1007.0 - -
01/01:00pm 14.5 - - - - W 35 50 19 27 1007.2 1007.2 -
01/12:30pm 14.0 - - - - W 39 50 21 27 1007.5 - -
01/12:04pm 14.2 - - - - W 32 50 17 27 1007.7 - -
01/12:00pm 13.9 - - - - W 30 44 16 24 1007.6 1007.6 -
01/11:30am 14.0 - - - - W 39 52 21 28 1008.0 - -
01/11:00am 14.3 - - - - W 37 50 20 27 1007.9 1007.9 -
01/10:47am 14.3 - - - - W 30 50 16 27 1007.7 - -
01/10:30am 14.1 - - - - W 39 50 21 27 1007.7 - -
01/10:00am 14.4 - - - - W 39 50 21 27 1007.6 1007.6 -
01/09:33am 14.8 - - - - WNW 28 52 15 28 1007.4 - -
01/09:30am 14.6 - - - - WNW 28 41 15 22 1007.2 - -
01/09:00am 14.4 - - - - W 30 41 16 22 1007.0 1007.0 -
01/08:30am 14.4 - - - - W 30 41 16 22 1007.1 - -
01/08:21am 14.4 - - - - W 28 41 15 22 1006.9 - -
01/08:00am 14.5 - - - - W 15 20 8 11 1006.6 1006.6 -
01/07:30am 14.7 - - - - W 17 24 9 13 1006.1 - -
01/07:00am 15.1 - - - - W 17 28 9 15 1005.8 1005.8 -
01/06:30am 15.7 - - - - W 20 37 11 20 1005.3 - -
01/06:00am 16.4 - - - - W 32 48 17 26 1004.7 1004.7 -
01/05:30am 17.8 - - - - W 20 28 11 15 1003.8 - -
01/05:00am 18.1 - - - - S 4 7 2 4 1003.2 1003.2 -
01/04:30am 18.0 - - - - NE 15 20 8 11 1002.9 - -
01/04:00am 17.7 - - - - NNE 19 28 10 15 1002.6 1002.6 -
01/03:30am 17.9 - - - - NE 24 33 13 18 1002.3 - -
01/03:00am 17.8 - - - - NE 28 37 15 20 1002.3 1002.3 -
01/02:30am 18.0 - - - - NE 30 39 16 21 1002.4 - -
01/02:00am 18.2 - - - - NE 28 41 15 22 1002.8 1002.8 -
01/01:30am 18.8 - - - - NE 26 32 14 17 1003.1 - -
01/01:00am 18.6 - - - - NE 26 35 14 19 1003.4 1003.4 -
01/12:30am 18.3 - - - - NNE 24 33 13 18 1003.8 - -
01/12:00am 18.9 - - - - NNE 20 30 11 16 1004.1 1004.1 -
 
Date/Time
EST
Temp
°C
App
Temp
°C
Dew
Point
Rel
Hum
%
Delta-T
°C
Wind Press
QNH
hPa
Press
MSL
hPa
Rain
since 9 am
mm
Dir
 
Spd
km/h
Gust
km/h
Spd
kts
Gust
kts
31/11:30pm 19.1 - - - - NNE 22 33 12 18 1004.3 - -
31/11:00pm 18.6 - - - - NNE 26 41 14 22 1004.4 1004.4 -
31/10:30pm 18.9 - - - - N 26 37 14 20 1004.5 - -
31/10:00pm 19.4 - - - - N 24 39 13 21 1004.5 1004.5 -
31/09:30pm 19.6 - - - - N 26 39 14 21 1004.3 - -
31/09:00pm 19.9 - - - - N 26 41 14 22 1004.3 1004.3 -
31/08:30pm 19.8 - - - - N 26 39 14 21 1004.2 - -
31/08:00pm 20.5 - - - - N 22 37 12 20 1004.5 1004.5 -
31/07:50pm 20.8 - - - - N 30 48 16 26 1004.6 - -
31/07:30pm 20.8 - - - - N 24 35 13 19 1004.6 - -
31/07:00pm 20.6 - - - - N 24 41 13 22 1004.6 1004.6 -
31/06:30pm 21.1 - - - - N 22 37 12 20 1004.5 - -
31/06:00pm 21.4 - - - - N 22 39 12 21 1004.3 1004.3 -
31/05:30pm 22.1 - - - - N 26 41 14 22 1004.2 - -
31/05:00pm 22.1 - - - - N 20 30 11 16 1004.5 1004.5 -
31/04:30pm 23.5 - - - - N 20 37 11 20 1004.5 - -
31/04:00pm 22.5 - - - - N 20 28 11 15 1004.4 1004.4 -
31/03:30pm 23.5 - - - - NW 28 41 15 22 1004.6 - -
31/03:09pm 23.7 - - - - NW 30 50 16 27 1004.9 - -
31/03:00pm 24.0 - - - - NW 32 44 17 24 1004.7 1004.7 -
31/02:53pm 24.0 - - - - NW 32 50 17 27 1004.7 - -
31/02:30pm 23.6 - - - - NW 41 50 22 27 1005.1 - -
31/02:02pm 24.0 - - - - NNW 28 46 15 25 1005.4 - -
31/02:00pm 23.8 - - - - NNW 24 43 13 23 1005.4 1005.4 -
31/01:30pm 23.4 - - - - NNW 20 41 11 22 1005.9 - -
31/01:00pm 23.3 - - - - NNW 28 44 15 24 1006.6 1006.6 -
31/12:44pm 23.1 - - - - NW 32 50 17 27 1007.1 - -
31/12:30pm 22.4 - - - - NW 28 39 15 21 1007.5 - -
31/12:00pm 21.8 - - - - NW 26 37 14 20 1008.4 1008.4 -
31/11:30am 20.4 - - - - N 17 24 9 13 1009.5 - -
31/11:00am 19.5 - - - - NNE 19 24 10 13 1010.4 1010.4 -
31/10:30am 19.0 - - - - N 20 30 11 16 1011.1 - -
31/10:00am 18.6 - - - - N 17 26 9 14 1011.5 1011.5 -
31/09:30am 18.0 - - - - N 19 24 10 13 1011.8 - -
31/09:00am 17.5 - - - - NNE 13 19 7 10 1012.2 1012.2 -
31/08:30am 16.9 - - - - N 19 26 10 14 1012.5 - -
31/08:00am 16.8 - - - - NNE 20 30 11 16 1012.4 1012.4 -
31/07:30am 16.1 - - - - NNE 20 32 11 17 1012.5 - -
31/07:00am 16.5 - - - - NNE 19 26 10 14 1012.5 1012.5 -
31/06:30am 16.8 - - - - NNW 11 20 6 11 1012.5 - -
31/06:00am 17.1 - - - - NNE 11 19 6 10 1012.3 1012.3 -
31/05:30am 16.9 - - - - NNE 13 22 7 12 1012.4 - -
31/05:00am 16.5 - - - - N 13 22 7 12 1012.5 1012.5 -
31/04:30am 16.1 - - - - NNE 15 22 8 12 1012.6 - -
31/04:00am 16.1 - - - - NE 15 24 8 13 1012.6 1012.6 -
31/03:30am 15.8 - - - - NNE 17 24 9 13 1012.7 - -
31/03:00am 15.7 - - - - N 17 22 9 12 1013.0 1013.0 -
31/02:30am 15.5 - - - - N 11 17 6 9 1013.4 - -
31/02:00am 15.7 - - - - NNW 11 17 6 9 1013.8 1013.8 -
31/01:30am 15.8 - - - - NNW 13 19 7 10 1014.0 - -
31/01:00am 16.2 - - - - N 15 20 8 11 1014.2 1014.2 -
31/12:30am 16.3 - - - - NNW 15 20 8 11 1014.5 - -
31/12:00am 16.3 - - - - NNW 13 15 7 8 1014.9 1014.9 -
 
Date/Time
EST
Temp
°C
App
Temp
°C
Dew
Point
Rel
Hum
%
Delta-T
°C
Wind Press
QNH
hPa
Press
MSL
hPa
Rain
since 9 am
mm
Dir
 
Spd
km/h
Gust
km/h
Spd
kts
Gust
kts
30/11:30pm 16.5 - - - - NNW 13 15 7 8 1015.1 - -
30/11:00pm 17.1 - - - - N 13 20 7 11 1015.4 1015.4 -
30/10:30pm 16.8 - - - - N 11 15 6 8 1015.6 - -
30/10:00pm 16.9 - - - - N 11 17 6 9 1015.8 1015.8 -
30/09:30pm 17.6 - - - - NNW 9 13 5 7 1015.9 - -
30/09:00pm 17.8 - - - - N 7 15 4 8 1016.0 1016.0 -

Other Formats:

Comma delimited format used in spreadsheet applications
http://www.bom.gov.au/fwo/IDN60801/IDN60801.95745.axf

JavaScript Object Notation format (JSON) in row-major order
http://www.bom.gov.au/fwo/IDN60801/IDN60801.95745.json